Dwiputra — C6MJ6 — position and weather

sailwx.info

Track history (hours):
 
Tides and Currents Weather Stations Pressure Air Temp Water Temp Dewpoint Dewpoint Depression Visibility Wind Speed Wind Dir Waves Ship Positions

Dwiputra

Last reported at 2018-Feb-11 13:11 UTC. Time now 2018-Feb-25 19:25 UTC.
Position N 34°05' E 129°46'.
Warning: this ship's position is 14 days out of date.

Length 272 m; beam 47.2 m.

Type: Tanker. MMSI: 308883000.

Date/timePositionNaut miles runAvg speedWind from/ knotsBaromVisibWave heightAir tempDewpointWater temp
2018-Feb-11 13:11N 34°05' E 129°46'211.6
2018-Feb-11 13:00N 34°05' E 129°48'511.0
2018-Feb-11 12:30N 34°05' E 129°55'510.9
2018-Feb-11 12:00N 34°05' E 130°02'611.1
2018-Feb-11 11:30N 34°06' E 130°08'611.5
2018-Feb-11 11:00N 34°06' E 130°15'611.1
2018-Feb-11 10:30N 34°06' E 130°22'510.9
2018-Feb-11 10:01N 34°05' E 130°28'610.7
2018-Feb-11 09:29N 34°05' E 130°35'510.5
2018-Feb-11 09:00N 34°04' E 130°41'611.1
2018-Feb-11 08:30N 34°03' E 130°47'5 9.7
2018-Feb-11 08:00N 34°00' E 130°53'3 6.7
2018-Feb-11 07:30N 33°57' E 130°52'2 4.0
2018-Feb-11 07:00N 33°55' E 130°52'0 0.1
2018-Feb-11 06:29N 33°55' E 130°52'0 0.0
2018-Feb-11 05:59N 33°55' E 130°52'0 0.0
2018-Feb-11 05:29N 33°55' E 130°52'0 0.0
2018-Feb-11 04:56N 33°55' E 130°52'0 0.0
2018-Feb-11 04:29N 33°55' E 130°52'0 0.0
2018-Feb-11 03:59N 33°55' E 130°52'0 0.0
2018-Feb-11 03:20N 33°55' E 130°52'0 0.0
2018-Feb-11 02:59N 33°55' E 130°52'0 0.0
2018-Feb-11 02:29N 33°55' E 130°52'0 0.0
2018-Feb-11 01:59N 33°55' E 130°52'0 0.0
2018-Feb-11 01:29N 33°55' E 130°52'0 0.0
2018-Feb-11 00:59N 33°55' E 130°52'0 0.0
2018-Feb-11 00:29N 33°55' E 130°52'0 0.0
2018-Feb-10 23:59N 33°55' E 130°52'0 0.0
2018-Feb-10 23:29N 33°55' E 130°52'0 0.0
2018-Feb-10 22:56N 33°55' E 130°52'0 0.0
2018-Feb-10 22:29N 33°55' E 130°52'0 0.0
2018-Feb-10 21:59N 33°55' E 130°52'0 0.0
2018-Feb-10 21:29N 33°55' E 130°52'0 0.0
2018-Feb-10 20:56N 33°55' E 130°52'0 0.0
2018-Feb-10 20:26N 33°55' E 130°52'0 0.0
2018-Feb-10 19:59N 33°55' E 130°52'0 0.0
2018-Feb-10 19:29N 33°55' E 130°52'0 0.0
2018-Feb-10 18:59N 33°55' E 130°52'0 0.0
2018-Feb-10 18:29N 33°55' E 130°52'0 0.0
2018-Feb-10 17:59N 33°55' E 130°52'0 0.0
2018-Feb-10 17:29N 33°55' E 130°52'0 0.0
2018-Feb-10 16:59N 33°55' E 130°52'0 0.0
2018-Feb-10 16:26N 33°55' E 130°52'0 0.1
2018-Feb-10 15:59N 33°55' E 130°52'0 0.0
2018-Feb-10 15:29N 33°55' E 130°52'0 0.0
2018-Feb-10 14:59N 33°55' E 130°52'0 0.0
2018-Feb-10 14:29N 33°55' E 130°52'0 0.0
2018-Feb-10 13:59N 33°55' E 130°52'0 0.0
2018-Feb-10 13:29N 33°55' E 130°52'0 0.0
2018-Feb-10 12:59N 33°55' E 130°52'0 0.0
2018-Feb-10 12:29N 33°55' E 130°52'0 0.0
2018-Feb-10 11:59N 33°55' E 130°52'0 0.0
2018-Feb-10 11:26N 33°55' E 130°52'0 0.0
2018-Feb-10 10:56N 33°55' E 130°52'0 0.0
2018-Feb-10 10:26N 33°55' E 130°52'0 0.0
2018-Feb-10 09:56N 33°55' E 130°52'0 0.0
2018-Feb-10 09:29N 33°55' E 130°52'0 0.0
2018-Feb-10 08:59N 33°55' E 130°52'0 0.0
2018-Feb-10 08:26N 33°55' E 130°52'0 0.0
2018-Feb-10 07:59N 33°55' E 130°52'0 0.0
2018-Feb-10 07:26N 33°55' E 130°52'0 0.0
2018-Feb-10 06:59N 33°55' E 130°52'0 0.0
2018-Feb-10 06:29N 33°55' E 130°52'0 0.0
2018-Feb-10 05:59N 33°55' E 130°52'0 0.0
2018-Feb-10 05:29N 33°55' E 130°52'0 0.0
2018-Feb-10 04:56N 33°55' E 130°52'0 0.0
2018-Feb-10 04:29N 33°55' E 130°52'0 0.0
2018-Feb-10 03:59N 33°55' E 130°52'0 0.0
2018-Feb-10 03:29N 33°55' E 130°52'0 0.0
2018-Feb-10 02:59N 33°55' E 130°52'0 0.0
2018-Feb-10 02:29N 33°55' E 130°52'0 0.0
2018-Feb-10 01:59N 33°55' E 130°52'0 0.1
2018-Feb-10 01:30N 33°55' E 130°52'0 0.4
2018-Feb-10 01:00N 33°55' E 130°52'3 6.1
2018-Feb-10 00:30N 33°58' E 130°53'5 9.9
2018-Feb-10 00:00N 34°02' E 130°49'3 5.7
2018-Feb-09 23:30N 34°04' E 130°46'3 5.2
2018-Feb-09 23:00N 34°05' E 130°43'2 7.0
2018-Feb-09 22:46N 34°05' E 130°41'2 9.7
2018-Feb-09 22:30N 34°05' E 130°38'5 9.8
2018-Feb-09 22:00N 34°05' E 130°32'510.3
2018-Feb-09 21:30N 34°05' E 130°26'12 8.0
2018-Feb-09 20:00N 34°12' E 130°14'510.3
2018-Feb-09 19:30N 34°08' E 130°10'5 9.5
2018-Feb-09 19:00N 34°05' E 130°06'510.6
2018-Feb-09 18:30N 34°05' E 129°59'2 4.8
2018-Feb-09 18:00N 34°05' E 129°56'15 9.9
2018-Feb-09 16:30N 34°04' E 130°14'9 9.4
2018-Feb-09 15:30N 34°05' E 130°03'510.7
2018-Feb-09 15:00N 34°05' E 129°56'  
Track history (hours):
 
Tides and Currents Weather Stations Pressure Air Temp Water Temp Dewpoint Dewpoint Depression Visibility Wind Speed Wind Dir Waves Ship Positions

Dwiputra

Last reported at 2018-Feb-11 13:11 UTC. Time now 2018-Feb-25 19:25 UTC.
Position N 34°05' E 129°46'.
Warning: this ship's position is 14 days out of date.

Length 272 m; beam 47.2 m.

Type: Tanker. MMSI: 308883000.

Date/timePositionNaut miles runAvg speedWind from/ knotsBaromVisibWave heightAir tempDewpointWater temp
2018-Feb-11 13:11N 34°05' E 129°46'211.6
2018-Feb-11 13:00N 34°05' E 129°48'511.0
2018-Feb-11 12:30N 34°05' E 129°55'510.9
2018-Feb-11 12:00N 34°05' E 130°02'611.1
2018-Feb-11 11:30N 34°06' E 130°08'611.5
2018-Feb-11 11:00N 34°06' E 130°15'611.1
2018-Feb-11 10:30N 34°06' E 130°22'510.9
2018-Feb-11 10:01N 34°05' E 130°28'610.7
2018-Feb-11 09:29N 34°05' E 130°35'510.5
2018-Feb-11 09:00N 34°04' E 130°41'611.1
2018-Feb-11 08:30N 34°03' E 130°47'5 9.7
2018-Feb-11 08:00N 34°00' E 130°53'3 6.7
2018-Feb-11 07:30N 33°57' E 130°52'2 4.0
2018-Feb-11 07:00N 33°55' E 130°52'0 0.1
2018-Feb-11 06:29N 33°55' E 130°52'0 0.0
2018-Feb-11 05:59N 33°55' E 130°52'0 0.0
2018-Feb-11 05:29N 33°55' E 130°52'0 0.0
2018-Feb-11 04:56N 33°55' E 130°52'0 0.0
2018-Feb-11 04:29N 33°55' E 130°52'0 0.0
2018-Feb-11 03:59N 33°55' E 130°52'0 0.0
2018-Feb-11 03:20N 33°55' E 130°52'0 0.0
2018-Feb-11 02:59N 33°55' E 130°52'0 0.0
2018-Feb-11 02:29N 33°55' E 130°52'0 0.0
2018-Feb-11 01:59N 33°55' E 130°52'0 0.0
2018-Feb-11 01:29N 33°55' E 130°52'0 0.0
2018-Feb-11 00:59N 33°55' E 130°52'0 0.0
2018-Feb-11 00:29N 33°55' E 130°52'0 0.0
2018-Feb-10 23:59N 33°55' E 130°52'0 0.0
2018-Feb-10 23:29N 33°55' E 130°52'0 0.0
2018-Feb-10 22:56N 33°55' E 130°52'0 0.0
2018-Feb-10 22:29N 33°55' E 130°52'0 0.0
2018-Feb-10 21:59N 33°55' E 130°52'0 0.0
2018-Feb-10 21:29N 33°55' E 130°52'0 0.0
2018-Feb-10 20:56N 33°55' E 130°52'0 0.0
2018-Feb-10 20:26N 33°55' E 130°52'0 0.0
2018-Feb-10 19:59N 33°55' E 130°52'0 0.0
2018-Feb-10 19:29N 33°55' E 130°52'0 0.0
2018-Feb-10 18:59N 33°55' E 130°52'0 0.0
2018-Feb-10 18:29N 33°55' E 130°52'0 0.0
2018-Feb-10 17:59N 33°55' E 130°52'0 0.0
2018-Feb-10 17:29N 33°55' E 130°52'0 0.0
2018-Feb-10 16:59N 33°55' E 130°52'0 0.0
2018-Feb-10 16:26N 33°55' E 130°52'0 0.1
2018-Feb-10 15:59N 33°55' E 130°52'0 0.0
2018-Feb-10 15:29N 33°55' E 130°52'0 0.0
2018-Feb-10 14:59N 33°55' E 130°52'0 0.0
2018-Feb-10 14:29N 33°55' E 130°52'0 0.0
2018-Feb-10 13:59N 33°55' E 130°52'0 0.0
2018-Feb-10 13:29N 33°55' E 130°52'0 0.0
2018-Feb-10 12:59N 33°55' E 130°52'0 0.0
2018-Feb-10 12:29N 33°55' E 130°52'0 0.0
2018-Feb-10 11:59N 33°55' E 130°52'0 0.0
2018-Feb-10 11:26N 33°55' E 130°52'0 0.0
2018-Feb-10 10:56N 33°55' E 130°52'0 0.0
2018-Feb-10 10:26N 33°55' E 130°52'0 0.0
2018-Feb-10 09:56N 33°55' E 130°52'0 0.0
2018-Feb-10 09:29N 33°55' E 130°52'0 0.0
2018-Feb-10 08:59N 33°55' E 130°52'0 0.0
2018-Feb-10 08:26N 33°55' E 130°52'0 0.0
2018-Feb-10 07:59N 33°55' E 130°52'0 0.0
2018-Feb-10 07:26N 33°55' E 130°52'0 0.0
2018-Feb-10 06:59N 33°55' E 130°52'0 0.0
2018-Feb-10 06:29N 33°55' E 130°52'0 0.0
2018-Feb-10 05:59N 33°55' E 130°52'0 0.0
2018-Feb-10 05:29N 33°55' E 130°52'0 0.0
2018-Feb-10 04:56N 33°55' E 130°52'0 0.0
2018-Feb-10 04:29N 33°55' E 130°52'0 0.0
2018-Feb-10 03:59N 33°55' E 130°52'0 0.0
2018-Feb-10 03:29N 33°55' E 130°52'0 0.0
2018-Feb-10 02:59N 33°55' E 130°52'0 0.0
2018-Feb-10 02:29N 33°55' E 130°52'0 0.0
2018-Feb-10 01:59N 33°55' E 130°52'0 0.1
2018-Feb-10 01:30N 33°55' E 130°52'0 0.4
2018-Feb-10 01:00N 33°55' E 130°52'3 6.1
2018-Feb-10 00:30N 33°58' E 130°53'5 9.9
2018-Feb-10 00:00N 34°02' E 130°49'3 5.7
2018-Feb-09 23:30N 34°04' E 130°46'3 5.2
2018-Feb-09 23:00N 34°05' E 130°43'2 7.0
2018-Feb-09 22:46N 34°05' E 130°41'2 9.7
2018-Feb-09 22:30N 34°05' E 130°38'5 9.8
2018-Feb-09 22:00N 34°05' E 130°32'510.3
2018-Feb-09 21:30N 34°05' E 130°26'12 8.0
2018-Feb-09 20:00N 34°12' E 130°14'510.3
2018-Feb-09 19:30N 34°08' E 130°10'5 9.5
2018-Feb-09 19:00N 34°05' E 130°06'510.6
2018-Feb-09 18:30N 34°05' E 129°59'2 4.8
2018-Feb-09 18:00N 34°05' E 129°56'15 9.9
2018-Feb-09 16:30N 34°04' E 130°14'9 9.4
2018-Feb-09 15:30N 34°05' E 130°03'510.7
2018-Feb-09 15:00N 34°05' E 129°56'  

Dump ship's entire track history